createdAt,value
2023-01-08T00:01:06.325Z,99711.69
2023-01-08T00:03:34.249Z,99711.94
2023-01-08T00:06:03.157Z,99717.41
2023-01-08T00:08:31.862Z,99723.56
2023-01-08T00:10:59.806Z,99711.22
2023-01-08T00:13:28.286Z,99704.94
2023-01-08T00:15:57.479Z,99705.78
2023-01-08T00:18:27.132Z,99699.63
2023-01-08T00:20:55.448Z,99705.78
2023-01-08T00:23:23.407Z,99705.78
2023-01-08T00:25:51.238Z,99684.09
2023-01-08T00:28:20.882Z,99676.66
2023-01-08T00:30:48.888Z,99670.66
2023-01-08T00:33:18.039Z,99677.06
2023-01-08T00:35:46.120Z,99673.72
2023-01-08T00:38:14.302Z,99677.50
2023-01-08T00:40:42.147Z,99680.97
2023-01-08T00:43:10.129Z,99677.63
2023-01-08T00:45:38.227Z,99668.94
2023-01-08T00:48:06.767Z,99670.88
2023-01-08T00:50:36.079Z,99686.25
2023-01-08T00:53:04.530Z,99696.03
2023-01-08T00:55:32.456Z,99690.97
2023-01-08T00:58:00.455Z,99678.91
2023-01-08T01:00:28.679Z,99685.94
2023-01-08T01:02:56.613Z,99681.84
2023-01-08T01:05:24.618Z,99666.88
2023-01-08T01:07:53.959Z,99656.53
2023-01-08T01:10:21.889Z,99667.00
2023-01-08T01:12:50.036Z,99673.88
2023-01-08T01:15:19.649Z,99675.69
2023-01-08T01:17:47.761Z,99682.69
2023-01-08T01:20:17.760Z,99678.56
2023-01-08T01:22:45.735Z,99683.00
2023-01-08T01:25:14.883Z,99686.47
2023-01-08T01:27:42.647Z,99680.97
2023-01-08T01:30:11.274Z,99675.78
2023-01-08T01:32:39.009Z,99679.38
2023-01-08T01:35:07.724Z,99678.25
2023-01-08T01:37:35.434Z,99669.81
2023-01-08T01:40:03.282Z,99681.53
2023-01-08T01:42:41.253Z,99677.47
2023-01-08T01:45:21.200Z,99675.75
2023-01-08T01:47:54.527Z,99678.81
2023-01-08T01:50:29.359Z,99674.84
2023-01-08T01:53:02.526Z,99675.25
2023-01-08T01:55:32.599Z,99665.97
2023-01-08T01:58:05.833Z,99662.63
2023-01-08T02:00:34.773Z,99663.72
2023-01-08T02:03:03.168Z,99661.19
2023-01-08T02:05:39.636Z,99652.50
2023-01-08T02:08:12.098Z,99650.09
2023-01-08T02:10:49.368Z,99655.69
2023-01-08T02:13:24.010Z,99655.91
2023-01-08T02:15:57.702Z,99654.25
2023-01-08T02:18:32.190Z,99657.94
2023-01-08T02:21:04.859Z,99647.47
2023-01-08T02:23:40.937Z,99646.75
2023-01-08T02:26:25.048Z,99656.41
2023-01-08T02:28:59.247Z,99652.06
2023-01-08T02:31:29.627Z,99659.75
2023-01-08T02:33:57.491Z,99653.53
2023-01-08T02:36:38.948Z,99642.66
2023-01-08T02:39:25.200Z,99640.84
2023-01-08T02:42:08.082Z,99638.22
2023-01-08T02:44:44.759Z,99629.25
2023-01-08T02:47:16.790Z,99622.13
2023-01-08T02:49:47.758Z,99616.00
2023-01-08T02:52:18.704Z,99615.88
2023-01-08T02:54:47.732Z,99612.22
2023-01-08T02:57:18.922Z,99610.16
2023-01-08T02:59:48.495Z,99608.75
2023-01-08T03:02:17.378Z,99599.22
2023-01-08T03:04:53.387Z,99603.72
2023-01-08T03:07:21.701Z,99584.38
2023-01-08T03:09:49.793Z,99593.41
2023-01-08T03:12:25.335Z,99575.13
2023-01-08T03:14:59.251Z,99564.63
2023-01-08T03:17:32.592Z,99552.19
2023-01-08T03:20:04.157Z,99553.75
2023-01-08T03:22:33.615Z,99546.88
2023-01-08T03:25:03.829Z,99557.50
2023-01-08T03:27:34.975Z,99560.03
2023-01-08T03:30:05.942Z,99553.91
2023-01-08T03:32:34.822Z,99556.41
2023-01-08T03:35:05.082Z,99564.22
2023-01-08T03:37:36.772Z,99562.56
2023-01-08T03:40:10.681Z,99557.25
2023-01-08T03:42:39.909Z,99556.28
2023-01-08T03:45:08.826Z,99551.72
2023-01-08T03:47:38.603Z,99552.69
2023-01-08T03:50:10.573Z,99546.41
2023-01-08T03:52:38.375Z,99539.53
2023-01-08T03:55:06.798Z,99533.50
2023-01-08T03:57:34.582Z,99530.97
2023-01-08T04:00:04.228Z,99521.34
2023-01-08T04:02:32.215Z,99519.66
2023-01-08T04:05:00.108Z,99532.19
2023-01-08T04:07:27.861Z,99523.41
2023-01-08T04:09:55.670Z,99526.78
2023-01-08T04:12:24.383Z,99520.88
2023-01-08T04:14:52.186Z,99522.81
2023-01-08T04:17:21.236Z,99525.72
2023-01-08T04:19:48.949Z,99532.84
2023-01-08T04:22:16.660Z,99525.00
2023-01-08T04:24:44.331Z,99530.31
2023-01-08T04:27:12.042Z,99527.94
2023-01-08T04:29:39.759Z,99536.84
2023-01-08T04:32:07.495Z,99524.44
2023-01-08T04:34:36.659Z,99522.63
2023-01-08T04:37:04.395Z,99525.28
2023-01-08T04:39:32.222Z,99533.25
2023-01-08T04:41:59.980Z,99527.09
2023-01-08T04:44:27.645Z,99526.38
2023-01-08T04:46:55.528Z,99522.88
2023-01-08T04:49:23.307Z,99529.16
2023-01-08T04:51:52.336Z,99519.66
2023-01-08T04:54:19.968Z,99526.91
2023-01-08T04:56:47.634Z,99521.44
2023-01-08T04:59:15.289Z,99520.50
2023-01-08T05:01:43.126Z,99520.88
2023-01-08T05:04:12.146Z,99525.47
2023-01-08T05:06:39.856Z,99527.38
2023-01-08T05:09:09.188Z,99524.03
2023-01-08T05:11:37.387Z,99525.72
2023-01-08T05:14:05.598Z,99526.81
2023-01-08T05:16:33.329Z,99521.53
2023-01-08T05:19:01.002Z,99530.19
2023-01-08T05:21:28.755Z,99516.22
2023-01-08T05:23:56.394Z,99521.53
2023-01-08T05:26:25.508Z,99513.16
2023-01-08T05:28:53.232Z,99510.53
2023-01-08T05:31:20.982Z,99508.97
2023-01-08T05:33:48.679Z,99507.16
2023-01-08T05:36:16.396Z,99505.34
2023-01-08T05:38:44.394Z,99501.97
2023-01-08T05:41:12.750Z,99497.97
2023-01-08T05:43:41.797Z,99498.09
2023-01-08T05:46:09.474Z,99500.16
2023-01-08T05:48:37.979Z,99503.53
2023-01-08T05:51:06.084Z,99503.66
2023-01-08T05:53:34.103Z,99512.59
2023-01-08T05:56:02.856Z,99509.81
2023-01-08T05:58:31.162Z,99507.28
2023-01-08T06:01:04.403Z,99499.19
2023-01-08T06:03:32.128Z,99491.50
2023-01-08T06:06:01.286Z,99497.91
2023-01-08T06:08:29.546Z,99493.81
2023-01-08T06:11:00.494Z,99501.06
2023-01-08T06:13:28.255Z,99494.22
2023-01-08T06:15:56.350Z,99487.50
2023-01-08T06:18:25.443Z,99488.56
2023-01-08T06:20:53.169Z,99501.81
2023-01-08T06:23:20.908Z,99502.91
2023-01-08T06:25:53.436Z,99511.69
2023-01-08T06:28:21.482Z,99514.13
2023-01-08T06:30:49.371Z,99514.25
2023-01-08T06:33:18.666Z,99513.13
2023-01-08T06:35:48.666Z,99515.53
2023-01-08T06:38:19.210Z,99515.03
2023-01-08T06:40:47.547Z,99511.66
2023-01-08T06:43:15.830Z,99515.34
2023-01-08T06:45:43.545Z,99523.69
2023-01-08T06:48:11.199Z,99521.44
2023-01-08T06:50:38.926Z,99517.97
2023-01-08T06:53:08.096Z,99522.53
2023-01-08T06:55:35.812Z,99524.44
2023-01-08T06:58:03.489Z,99523.88
2023-01-08T07:00:31.186Z,99523.88
2023-01-08T07:02:59.033Z,99512.94
2023-01-08T07:05:26.802Z,99520.66
2023-01-08T07:07:54.982Z,99525.34
2023-01-08T07:10:24.618Z,99522.97
2023-01-08T07:12:52.307Z,99528.28
2023-01-08T07:15:20.001Z,99528.13
2023-01-08T07:17:47.697Z,99536.34
2023-01-08T07:20:15.520Z,99531.47
2023-01-08T07:22:43.218Z,99529.34
2023-01-08T07:25:11.299Z,99530.91
2023-01-08T07:27:40.720Z,99531.03
2023-01-08T07:30:20.987Z,99526.69
2023-01-08T07:32:59.526Z,99532.00
2023-01-08T07:35:27.347Z,99525.84
2023-01-08T07:37:55.206Z,99523.91
2023-01-08T07:40:23.196Z,99526.56
2023-01-08T07:43:00.388Z,99532.47
2023-01-08T07:45:28.560Z,99535.13
2023-01-08T07:47:57.956Z,99540.53
2023-01-08T07:50:25.921Z,99542.09
2023-01-08T07:52:53.868Z,99536.78
2023-01-08T07:55:21.736Z,99539.09
2023-01-08T07:57:49.545Z,99529.44
2023-01-08T08:00:20.432Z,99532.16
2023-01-08T08:02:48.566Z,99537.00
2023-01-08T08:05:17.746Z,99528.31
2023-01-08T08:07:45.927Z,99530.16
2023-01-08T08:10:13.756Z,99532.28
2023-01-08T08:12:41.506Z,99527.97
2023-01-08T08:15:10.730Z,99529.19
2023-01-08T08:17:39.944Z,99538.81
2023-01-08T08:20:09.533Z,99535.31
2023-01-08T08:22:37.234Z,99530.16
2023-01-08T08:25:05.255Z,99535.06
2023-01-08T08:27:33.097Z,99527.84
2023-01-08T08:30:00.750Z,99530.84
2023-01-08T08:32:28.530Z,99525.44
2023-01-08T08:34:57.621Z,99530.84
2023-01-08T08:37:25.513Z,99525.31
2023-01-08T08:39:53.327Z,99522.06
2023-01-08T08:42:21.322Z,99518.59
2023-01-08T08:44:49.106Z,99523.88
2023-01-08T08:47:17.021Z,99524.84
2023-01-08T08:49:44.779Z,99528.47
2023-01-08T08:52:14.032Z,99519.81
2023-01-08T08:54:41.846Z,99512.69
2023-01-08T08:57:09.879Z,99504.63
2023-01-08T08:59:38.162Z,99500.25
2023-01-08T09:02:06.200Z,99502.81
2023-01-08T09:04:34.790Z,99507.97
2023-01-08T09:07:02.725Z,99519.31
2023-01-08T09:09:31.887Z,99514.31
2023-01-08T09:11:59.932Z,99510.97
2023-01-08T09:14:27.673Z,99513.38
2023-01-08T09:16:55.673Z,99516.84
2023-01-08T09:19:23.589Z,99519.22
2023-01-08T09:21:51.714Z,99518.41
2023-01-08T09:24:19.424Z,99520.81
2023-01-08T09:26:48.581Z,99516.34
2023-01-08T09:29:16.364Z,99524.03
2023-01-08T09:31:44.265Z,99515.94
2023-01-08T09:34:11.939Z,99511.34
2023-01-08T09:36:39.881Z,99516.28
2023-01-08T09:39:07.697Z,99514.91
2023-01-08T09:41:38.941Z,99514.91
2023-01-08T09:44:08.775Z,99514.66
2023-01-08T09:46:37.748Z,99512.22
2023-01-08T09:49:07.866Z,99523.06
2023-01-08T09:51:37.285Z,99517.63
2023-01-08T09:54:07.718Z,99512.91
2023-01-08T09:56:36.513Z,99510.38
2023-01-08T09:59:06.379Z,99508.44
2023-01-08T10:01:39.838Z,99512.66
2023-01-08T10:04:15.572Z,99513.38
2023-01-08T10:06:50.542Z,99501.66
2023-01-08T10:09:20.627Z,99501.38
2023-01-08T10:11:50.841Z,99501.28
2023-01-08T10:14:23.751Z,99501.16
2023-01-08T10:16:56.061Z,99489.31
2023-01-08T10:19:24.392Z,99485.16
2023-01-08T10:21:53.116Z,99486.25
2023-01-08T10:24:32.645Z,99492.72
2023-01-08T10:27:07.631Z,99474.84
2023-01-08T10:29:35.641Z,99483.41
2023-01-08T10:32:12.006Z,99483.00
2023-01-08T10:34:46.958Z,99485.41
2023-01-08T10:37:17.794Z,99479.81
2023-01-08T10:39:48.675Z,99462.63
2023-01-08T10:42:17.796Z,99466.44
2023-01-08T10:44:54.076Z,99462.97
2023-01-08T10:47:24.679Z,99453.94
2023-01-08T10:49:52.637Z,99447.50
2023-01-08T10:52:27.669Z,99438.28
2023-01-08T10:54:55.789Z,99441.66
2023-01-08T10:57:26.791Z,99442.22
2023-01-08T10:59:55.069Z,99443.91
2023-01-08T11:02:33.017Z,99438.84
2023-01-08T11:05:01.610Z,99445.03
2023-01-08T11:07:30.127Z,99442.09
2023-01-08T11:09:58.015Z,99431.31
2023-01-08T11:12:35.936Z,99424.88
2023-01-08T11:15:05.357Z,99420.81
2023-01-08T11:17:35.436Z,99417.31
2023-01-08T11:20:19.997Z,99409.34
2023-01-08T11:22:47.814Z,99403.88
2023-01-08T11:25:23.618Z,99387.78
2023-01-08T11:27:52.671Z,99394.78
2023-01-08T11:30:24.174Z,99399.66
2023-01-08T11:32:58.329Z,99389.59
2023-01-08T11:35:28.556Z,99375.47
2023-01-08T11:37:59.633Z,99373.34
2023-01-08T11:40:38.498Z,99374.88
2023-01-08T11:43:19.829Z,99371.53
2023-01-08T11:46:02.065Z,99356.97
2023-01-08T11:48:42.451Z,99354.72
2023-01-08T11:51:34.928Z,99364.13
2023-01-08T11:54:08.643Z,99352.63
2023-01-08T11:56:52.249Z,99348.88
2023-01-08T11:59:28.869Z,99348.69
2023-01-08T12:02:04.994Z,99355.56
2023-01-08T12:04:59.904Z,99338.94
2023-01-08T12:07:36.821Z,99348.69
2023-01-08T12:10:14.229Z,99338.75
2023-01-08T12:12:55.524Z,99332.34
2023-01-08T12:15:32.282Z,99322.09
2023-01-08T12:18:28.511Z,99318.31
2023-01-08T12:21:05.664Z,99314.22
2023-01-08T12:23:45.834Z,99313.69
2023-01-08T12:26:20.961Z,99313.81
2023-01-08T12:29:27.174Z,99313.28
2023-01-08T12:32:17.720Z,99297.44
2023-01-08T12:34:54.306Z,99303.34
2023-01-08T12:37:28.289Z,99295.63
2023-01-08T12:40:02.534Z,99296.88
2023-01-08T12:42:32.769Z,99284.13
2023-01-08T12:45:02.836Z,99282.16
2023-01-08T12:47:34.391Z,99293.78
2023-01-08T12:50:28.685Z,99291.28
2023-01-08T12:53:04.378Z,99276.28
2023-01-08T12:55:43.296Z,99275.59
2023-01-08T12:58:22.251Z,99280.38
2023-01-08T13:00:55.589Z,99281.50
2023-01-08T13:03:26.663Z,99296.16
2023-01-08T13:06:05.626Z,99291.41
2023-01-08T13:08:37.434Z,99284.69
2023-01-08T13:11:06.269Z,99283.47
2023-01-08T13:13:36.021Z,99275.47
2023-01-08T13:16:19.939Z,99274.34
2023-01-08T13:18:59.661Z,99266.09
2023-01-08T13:21:36.898Z,99269.28
2023-01-08T13:24:22.288Z,99266.03
2023-01-08T13:26:50.401Z,99264.88
2023-01-08T13:29:36.489Z,99260.06
2023-01-08T13:32:04.607Z,99261.31
2023-01-08T13:34:40.311Z,99253.78
2023-01-08T13:37:16.461Z,99243.66
2023-01-08T13:39:52.671Z,99244.00
2023-01-08T13:42:24.767Z,99248.91
2023-01-08T13:44:58.510Z,99245.16
2023-01-08T13:47:32.436Z,99250.25
2023-01-08T13:50:04.194Z,99245.34
2023-01-08T13:52:45.281Z,99248.31
2023-01-08T13:55:17.919Z,99245.09
2023-01-08T13:57:50.118Z,99244.13
2023-01-08T14:00:25.852Z,99234.63
2023-01-08T14:02:55.157Z,99225.41
2023-01-08T14:05:26.663Z,99224.84
2023-01-08T14:07:55.088Z,99208.75
2023-01-08T14:10:25.297Z,99207.81
2023-01-08T14:12:53.616Z,99200.81
2023-01-08T14:15:25.002Z,99195.97
2023-01-08T14:17:53.855Z,99198.75
2023-01-08T14:20:28.856Z,99201.69
2023-01-08T14:22:56.955Z,99216.38
2023-01-08T14:25:26.667Z,99210.22
2023-01-08T14:28:03.565Z,99206.59
2023-01-08T14:30:31.445Z,99195.78
2023-01-08T14:33:00.948Z,99197.63
2023-01-08T14:35:32.766Z,99197.63
2023-01-08T14:38:02.269Z,99201.78
2023-01-08T14:40:34.360Z,99208.94
2023-01-08T14:43:10.882Z,99208.94
2023-01-08T14:45:40.932Z,99213.81
2023-01-08T14:48:17.218Z,99200.50
2023-01-08T14:51:01.216Z,99199.22
2023-01-08T14:53:33.549Z,99188.59
2023-01-08T14:56:05.442Z,99185.91
2023-01-08T14:58:38.403Z,99179.91
2023-01-08T15:01:10.343Z,99174.59
2023-01-08T15:03:40.722Z,99167.75
2023-01-08T15:06:11.689Z,99171.25
2023-01-08T15:08:41.657Z,99169.72
2023-01-08T15:11:23.340Z,99171.56
2023-01-08T15:13:53.238Z,99166.69
2023-01-08T15:16:29.069Z,99164.31
2023-01-08T15:19:03.985Z,99164.59
2023-01-08T15:21:32.174Z,99158.78
2023-01-08T15:24:02.136Z,99166.19
2023-01-08T15:26:32.290Z,99169.31
2023-01-08T15:29:01.765Z,99166.78
2023-01-08T15:31:31.748Z,99157.28
2023-01-08T15:34:01.208Z,99152.94
2023-01-08T15:36:29.611Z,99148.78
2023-01-08T15:38:57.712Z,99140.25
2023-01-08T15:41:43.289Z,99143.75
2023-01-08T15:44:13.597Z,99131.72
2023-01-08T15:46:41.927Z,99134.84
2023-01-08T15:49:10.726Z,99130.63
2023-01-08T15:51:43.366Z,99129.94
2023-01-08T15:54:13.437Z,99126.91
2023-01-08T15:56:41.808Z,99117.41
2023-01-08T15:59:09.916Z,99119.66
2023-01-08T16:01:39.703Z,99110.44
2023-01-08T16:04:07.776Z,99110.75
2023-01-08T16:06:36.373Z,99109.50
2023-01-08T16:09:04.730Z,99113.59
2023-01-08T16:11:32.483Z,99106.06
2023-01-08T16:14:00.297Z,99100.06
2023-01-08T16:16:28.092Z,99105.50
2023-01-08T16:18:57.249Z,99103.72
2023-01-08T16:21:25.038Z,99104.16
2023-01-08T16:23:53.409Z,99097.16
2023-01-08T16:26:21.221Z,99100.94
2023-01-08T16:28:49.112Z,99091.44
2023-01-08T16:31:17.359Z,99100.56
2023-01-08T16:33:45.164Z,99098.59
2023-01-08T16:36:14.307Z,99101.38
2023-01-08T16:38:42.149Z,99099.88
2023-01-08T16:41:10.338Z,99106.69
2023-01-08T16:43:41.430Z,99097.91
2023-01-08T16:46:13.966Z,99097.72
2023-01-08T16:48:42.443Z,99102.22
2023-01-08T16:51:10.408Z,99092.41
2023-01-08T16:53:40.452Z,99087.09
2023-01-08T16:56:09.453Z,99091.31
2023-01-08T16:58:37.894Z,99079.84
2023-01-08T17:01:10.048Z,99083.19
2023-01-08T17:03:38.726Z,99081.38
2023-01-08T17:06:07.396Z,99084.72
2023-01-08T17:08:40.357Z,99074.94
2023-01-08T17:11:11.119Z,99059.44
2023-01-08T17:13:39.114Z,99050.47
2023-01-08T17:16:08.608Z,99048.28
2023-01-08T17:18:37.246Z,99042.41
2023-01-08T17:21:05.797Z,99040.88
2023-01-08T17:23:34.017Z,99037.00
2023-01-08T17:26:06.746Z,99035.75
2023-01-08T17:28:36.029Z,99032.72
2023-01-08T17:31:04.982Z,99015.41
2023-01-08T17:33:35.040Z,99017.78
2023-01-08T17:36:09.917Z,99015.41
2023-01-08T17:38:37.669Z,99006.91
2023-01-08T17:41:05.736Z,98997.56
2023-01-08T17:43:37.252Z,98988.22
2023-01-08T17:46:06.434Z,98998.22
2023-01-08T17:48:35.449Z,98993.91
2023-01-08T17:51:09.488Z,98994.19
2023-01-08T17:53:37.615Z,98990.03
2023-01-08T17:56:06.095Z,98993.50
2023-01-08T17:58:34.105Z,98980.50
2023-01-08T18:01:03.486Z,98986.94
2023-01-08T18:03:31.375Z,98989.72
2023-01-08T18:05:59.242Z,98995.16
2023-01-08T18:08:27.198Z,98992.81
2023-01-08T18:10:55.335Z,98990.31
2023-01-08T18:13:23.283Z,99001.03
2023-01-08T18:15:51.334Z,98997.56
2023-01-08T18:18:20.601Z,98991.88
2023-01-08T18:20:48.356Z,98990.31
2023-01-08T18:23:16.044Z,98995.91
2023-01-08T18:25:43.777Z,98989.91
2023-01-08T18:28:11.615Z,98981.25
2023-01-08T18:30:39.428Z,98979.72
2023-01-08T18:33:07.154Z,98975.53
2023-01-08T18:35:36.324Z,98972.50
2023-01-08T18:38:04.130Z,98971.78
2023-01-08T18:40:31.942Z,98974.72
2023-01-08T18:42:59.672Z,98977.34
2023-01-08T18:45:29.470Z,98969.69
2023-01-08T18:47:57.432Z,98955.03
2023-01-08T18:50:25.531Z,98951.56
2023-01-08T18:52:54.706Z,98941.78
2023-01-08T18:55:22.865Z,98946.13
2023-01-08T18:57:51.552Z,98936.47
2023-01-08T19:00:20.865Z,98941.06
2023-01-08T19:02:49.000Z,98936.63
2023-01-08T19:05:18.037Z,98934.81
2023-01-08T19:07:46.185Z,98934.00
2023-01-08T19:10:17.261Z,98925.19
2023-01-08T19:12:45.419Z,98927.81
2023-01-08T19:15:13.509Z,98926.16
2023-01-08T19:17:41.783Z,98923.66
2023-01-08T19:20:11.022Z,98927.00
2023-01-08T19:22:39.609Z,98910.53
2023-01-08T19:25:08.604Z,98904.28
2023-01-08T19:27:37.987Z,98889.34
2023-01-08T19:30:07.303Z,98899.66
2023-01-08T19:32:35.026Z,98888.75
2023-01-08T19:35:02.898Z,98887.09
2023-01-08T19:37:32.248Z,98885.41
2023-01-08T19:40:01.604Z,98878.16
2023-01-08T19:42:46.918Z,98879.03
2023-01-08T19:45:18.739Z,98880.41
2023-01-08T19:47:46.762Z,98868.81
2023-01-08T19:50:14.568Z,98865.88
2023-01-08T19:52:42.352Z,98864.06
2023-01-08T19:55:10.976Z,98861.97
2023-01-08T19:57:38.792Z,98854.16
2023-01-08T20:00:07.843Z,98853.59
2023-01-08T20:02:37.335Z,98846.63
2023-01-08T20:05:05.576Z,98845.94
2023-01-08T20:07:33.491Z,98838.25
2023-01-08T20:10:02.389Z,98836.75
2023-01-08T20:12:30.473Z,98834.09
2023-01-08T20:14:58.265Z,98819.84
2023-01-08T20:17:26.620Z,98815.81
2023-01-08T20:19:56.036Z,98819.03
2023-01-08T20:22:24.890Z,98817.38
2023-01-08T20:24:53.118Z,98821.13
2023-01-08T20:27:21.087Z,98815.00
2023-01-08T20:29:49.309Z,98808.31
2023-01-08T20:32:19.585Z,98812.78
2023-01-08T20:34:48.367Z,98805.94
2023-01-08T20:37:18.070Z,98811.22
2023-01-08T20:39:46.592Z,98806.09
2023-01-08T20:42:17.783Z,98798.28
2023-01-08T20:44:55.669Z,98787.13
2023-01-08T20:47:23.534Z,98780.16
2023-01-08T20:49:51.884Z,98785.72
2023-01-08T20:52:21.301Z,98778.03
2023-01-08T20:54:49.083Z,98784.56
2023-01-08T20:57:17.135Z,98773.50
2023-01-08T20:59:45.025Z,98773.94
2023-01-08T21:02:13.312Z,98764.84
2023-01-08T21:04:41.664Z,98755.78
2023-01-08T21:07:09.986Z,98751.16
2023-01-08T21:09:40.387Z,98748.22
2023-01-08T21:12:08.630Z,98743.72
2023-01-08T21:14:36.444Z,98746.09
2023-01-08T21:17:04.290Z,98735.34
2023-01-08T21:19:32.058Z,98744.13
2023-01-08T21:21:59.850Z,98732.56
2023-01-08T21:24:27.609Z,98731.56
2023-01-08T21:26:56.796Z,98724.63
2023-01-08T21:29:24.882Z,98719.31
2023-01-08T21:31:52.698Z,98720.97
2023-01-08T21:34:21.532Z,98716.50
2023-01-08T21:36:49.375Z,98707.56
2023-01-08T21:39:17.193Z,98701.44
2023-01-08T21:42:02.362Z,98699.59
2023-01-08T21:44:48.834Z,98684.66
2023-01-08T21:47:18.505Z,98677.72
2023-01-08T21:49:46.983Z,98688.19
2023-01-08T21:52:32.651Z,98684.84
2023-01-08T21:55:00.376Z,98669.06
2023-01-08T21:57:28.623Z,98666.28
2023-01-08T21:59:58.210Z,98658.47
2023-01-08T22:02:26.225Z,98651.78
2023-01-08T22:04:56.324Z,98650.25
2023-01-08T22:07:24.660Z,98651.25
2023-01-08T22:09:52.502Z,98632.16
2023-01-08T22:12:20.442Z,98630.50
2023-01-08T22:14:48.196Z,98639.72
2023-01-08T22:17:17.236Z,98637.09
2023-01-08T22:19:45.082Z,98629.81
2023-01-08T22:22:13.096Z,98626.75
2023-01-08T22:24:40.797Z,98619.94
2023-01-08T22:27:09.154Z,98612.00
2023-01-08T22:29:37.634Z,98609.50
2023-01-08T22:32:06.122Z,98609.50
2023-01-08T22:34:36.354Z,98605.31
2023-01-08T22:37:04.162Z,98604.34
2023-01-08T22:39:32.073Z,98598.19
2023-01-08T22:41:59.931Z,98594.72
2023-01-08T22:44:27.644Z,98594.72
2023-01-08T22:46:56.428Z,98596.38
2023-01-08T22:49:24.168Z,98601.69
2023-01-08T22:51:53.271Z,98593.72
2023-01-08T22:54:21.001Z,98594.88
2023-01-08T22:56:48.705Z,98599.34
2023-01-08T22:59:16.414Z,98602.81
2023-01-08T23:01:44.131Z,98599.34
2023-01-08T23:04:11.954Z,98606.44
2023-01-08T23:06:39.840Z,98610.78
2023-01-08T23:09:08.955Z,98612.28
2023-01-08T23:11:36.737Z,98608.50
2023-01-08T23:14:05.395Z,98606.69
2023-01-08T23:16:33.155Z,98611.69
2023-01-08T23:19:01.785Z,98603.88
2023-01-08T23:21:29.581Z,98603.88
2023-01-08T23:23:57.696Z,98596.25
2023-01-08T23:26:29.504Z,98599.03
2023-01-08T23:28:58.932Z,98594.88
2023-01-08T23:31:29.443Z,98595.25
2023-01-08T23:33:57.950Z,98593.03
2023-01-08T23:36:26.498Z,98596.53
2023-01-08T23:38:55.828Z,98596.69
2023-01-08T23:41:32.032Z,98596.69
2023-01-08T23:44:01.847Z,98596.69
2023-01-08T23:46:29.804Z,98588.75
2023-01-08T23:48:57.843Z,98582.25
2023-01-08T23:51:25.992Z,98572.25
2023-01-08T23:53:53.740Z,98570.97
2023-01-08T23:56:22.541Z,98561.03
2023-01-08T23:58:51.705Z,98551.13
